sensor_id;sensor_type;location;lat;lon;timestamp;pressure;altitude;pressure_sealevel;temperature;humidity
6833;BME280;3454;42.654;23.378;2023-04-21T00:01:55;64094.69;;;10.93;94.54
6833;BME280;3454;42.654;23.378;2023-04-21T00:04:20;64108.59;;;11.08;96.18
6833;BME280;3454;42.654;23.378;2023-04-21T00:06:46;64099.84;;;11.00;96.73
6833;BME280;3454;42.654;23.378;2023-04-21T00:09:11;64103.09;;;11.03;96.17
6833;BME280;3454;42.654;23.378;2023-04-21T00:11:36;64087.03;;;10.86;97.06
6833;BME280;3454;42.654;23.378;2023-04-21T00:14:02;64068.28;;;10.73;98.10
6833;BME280;3454;42.654;23.378;2023-04-21T00:16:28;64064.47;;;10.70;97.48
6833;BME280;3454;42.654;23.378;2023-04-21T00:18:53;64068.63;;;10.71;97.75
6833;BME280;3454;42.654;23.378;2023-04-21T00:21:18;64057.69;;;10.61;95.11
6833;BME280;3454;42.654;23.378;2023-04-21T00:23:44;64054.41;;;10.58;92.48
6833;BME280;3454;42.654;23.378;2023-04-21T00:26:11;64063.50;;;10.64;96.87
6833;BME280;3454;42.654;23.378;2023-04-21T00:28:37;64071.38;;;10.74;95.09
6833;BME280;3454;42.654;23.378;2023-04-21T00:31:03;64080.47;;;10.80;97.25
6833;BME280;3454;42.654;23.378;2023-04-21T00:33:28;64078.28;;;10.78;97.45
6833;BME280;3454;42.654;23.378;2023-04-21T00:35:54;64065.88;;;10.69;99.26
6833;BME280;3454;42.654;23.378;2023-04-21T00:38:21;64040.16;;;10.45;100.00
6833;BME280;3454;42.654;23.378;2023-04-21T00:40:46;64019.91;;;10.27;100.00
6833;BME280;3454;42.654;23.378;2023-04-21T00:43:11;64040.72;;;10.46;100.00
6833;BME280;3454;42.654;23.378;2023-04-21T00:45:37;64017.72;;;10.25;100.00
6833;BME280;3454;42.654;23.378;2023-04-21T00:48:02;64016.97;;;10.22;100.00
6833;BME280;3454;42.654;23.378;2023-04-21T00:50:28;64013.34;;;10.21;100.00
6833;BME280;3454;42.654;23.378;2023-04-21T00:52:54;64016.97;;;10.22;100.00
6833;BME280;3454;42.654;23.378;2023-04-21T00:55:20;64011.72;;;10.19;100.00
6833;BME280;3454;42.654;23.378;2023-04-21T00:57:46;64016.09;;;10.23;100.00
6833;BME280;3454;42.654;23.378;2023-04-21T01:00:13;64011.50;;;10.17;100.00
6833;BME280;3454;42.654;23.378;2023-04-21T01:02:39;64007.91;;;10.16;100.00
6833;BME280;3454;42.654;23.378;2023-04-21T01:05:05;64016.66;;;10.24;100.00
6833;BME280;3454;42.654;23.378;2023-04-21T01:07:33;64024.06;;;10.28;100.00
6833;BME280;3454;42.654;23.378;2023-04-21T01:09:59;63999.97;;;10.06;100.00
6833;BME280;3454;42.654;23.378;2023-04-21T01:12:24;63996.16;;;10.02;100.00
6833;BME280;3454;42.654;23.378;2023-04-21T01:14:50;63999.44;;;10.05;100.00
6833;BME280;3454;42.654;23.378;2023-04-21T01:17:15;63987.41;;;9.94;100.00
6833;BME280;3454;42.654;23.378;2023-04-21T01:19:43;63972.53;;;9.85;100.00
6833;BME280;3454;42.654;23.378;2023-04-21T01:22:10;63982.69;;;9.92;100.00
6833;BME280;3454;42.654;23.378;2023-04-21T01:24:41;63971.78;;;9.82;100.00
6833;BME280;3454;42.654;23.378;2023-04-21T01:27:18;63973.19;;;9.81;100.00
6833;BME280;3454;42.654;23.378;2023-04-21T01:29:45;63969.03;;;9.80;100.00
6833;BME280;3454;42.654;23.378;2023-04-21T01:32:14;63967.72;;;9.76;97.40
6833;BME280;3454;42.654;23.378;2023-04-21T01:34:40;63974.28;;;9.82;100.00
6833;BME280;3454;42.654;23.378;2023-04-21T01:37:12;63988.19;;;9.97;100.00
6833;BME280;3454;42.654;23.378;2023-04-21T01:39:46;63973.41;;;9.84;100.00
6833;BME280;3454;42.654;23.378;2023-04-21T01:42:15;63972.00;;;9.85;100.00
6833;BME280;3454;42.654;23.378;2023-04-21T01:44:41;63959.75;;;9.71;100.00
6833;BME280;3454;42.654;23.378;2023-04-21T01:47:06;63942.78;;;9.56;100.00
6833;BME280;3454;42.654;23.378;2023-04-21T01:49:32;63933.84;;;9.45;100.00
6833;BME280;3454;42.654;23.378;2023-04-21T01:51:57;63910.75;;;9.28;100.00
6833;BME280;3454;42.654;23.378;2023-04-21T01:54:23;63916.34;;;9.29;100.00
6833;BME280;3454;42.654;23.378;2023-04-21T01:56:48;63934.59;;;9.48;100.00
6833;BME280;3454;42.654;23.378;2023-04-21T01:59:14;63939.84;;;9.51;100.00
6833;BME280;3454;42.654;23.378;2023-04-21T02:01:39;63946.94;;;9.57;100.00
6833;BME280;3454;42.654;23.378;2023-04-21T02:04:05;63940.59;;;9.54;100.00
6833;BME280;3454;42.654;23.378;2023-04-21T02:06:30;63949.91;;;9.62;100.00
6833;BME280;3454;42.654;23.378;2023-04-21T02:08:56;63961.16;;;9.70;100.00
6833;BME280;3454;42.654;23.378;2023-04-21T02:11:23;63972.66;;;9.81;99.88
6833;BME280;3454;42.654;23.378;2023-04-21T02:13:50;63970.69;;;9.81;100.00
6833;BME280;3454;42.654;23.378;2023-04-21T02:16:16;63980.28;;;9.88;99.34
6833;BME280;3454;42.654;23.378;2023-04-21T02:18:42;63965.75;;;9.77;96.19
6833;BME280;3454;42.654;23.378;2023-04-21T02:21:08;63974.28;;;9.82;97.40
6833;BME280;3454;42.654;23.378;2023-04-21T02:23:34;63975.91;;;9.84;95.47
6833;BME280;3454;42.654;23.378;2023-04-21T02:25:59;63966.84;;;9.78;96.28
6833;BME280;3454;42.654;23.378;2023-04-21T02:28:25;63973.19;;;9.81;93.61
6833;BME280;3454;42.654;23.378;2023-04-21T02:30:50;63964.13;;;9.75;92.63
6833;BME280;3454;42.654;23.378;2023-04-21T02:33:16;63959.41;;;9.73;93.78
6833;BME280;3454;42.654;23.378;2023-04-21T02:35:41;63953.19;;;9.65;93.31
6833;BME280;3454;42.654;23.378;2023-04-21T02:38:07;63945.75;;;9.61;91.84
6833;BME280;3454;42.654;23.378;2023-04-21T02:40:33;63960.84;;;9.72;91.15
6833;BME280;3454;42.654;23.378;2023-04-21T02:42:58;63980.84;;;9.88;91.08
6833;BME280;3454;42.654;23.378;2023-04-21T02:45:24;63966.63;;;9.75;89.68
6833;BME280;3454;42.654;23.378;2023-04-21T02:47:49;63962.78;;;9.72;89.94
6833;BME280;3454;42.654;23.378;2023-04-21T02:50:15;63958.66;;;9.70;89.72
6833;BME280;3454;42.654;23.378;2023-04-21T02:52:40;63963.56;;;9.75;88.92
6833;BME280;3454;42.654;23.378;2023-04-21T02:55:06;63975.06;;;9.85;89.69
6833;BME280;3454;42.654;23.378;2023-04-21T02:57:31;63998.00;;;10.06;89.95
6833;BME280;3454;42.654;23.378;2023-04-21T02:59:57;64008.97;;;10.17;91.17
6833;BME280;3454;42.654;23.378;2023-04-21T03:02:23;64015.53;;;10.23;92.93
6833;BME280;3454;42.654;23.378;2023-04-21T03:04:48;64024.06;;;10.28;94.36
6833;BME280;3454;42.654;23.378;2023-04-21T03:07:13;64011.16;;;10.19;94.27
6833;BME280;3454;42.654;23.378;2023-04-21T03:09:39;64003.28;;;10.09;93.82
6833;BME280;3454;42.654;23.378;2023-04-21T03:12:05;63990.56;;;10.02;96.06
6833;BME280;3454;42.654;23.378;2023-04-21T03:14:31;63994.75;;;10.03;94.30
6833;BME280;3454;42.654;23.378;2023-04-21T03:16:56;63984.88;;;9.94;91.59
6833;BME280;3454;42.654;23.378;2023-04-21T03:19:21;63971.78;;;9.82;91.51
6833;BME280;3454;42.654;23.378;2023-04-21T03:21:47;63971.53;;;9.80;91.45
6833;BME280;3454;42.654;23.378;2023-04-21T03:24:13;63978.31;;;9.88;91.71
6833;BME280;3454;42.654;23.378;2023-04-21T03:26:39;63996.59;;;10.07;92.68
6833;BME280;3454;42.654;23.378;2023-04-21T03:29:07;64017.41;;;10.27;93.18
6833;BME280;3454;42.654;23.378;2023-04-21T03:31:33;64017.84;;;10.20;93.78
6833;BME280;3454;42.654;23.378;2023-04-21T03:33:58;63982.16;;;9.92;95.82
6833;BME280;3454;42.654;23.378;2023-04-21T03:36:23;63976.69;;;9.87;96.17
6833;BME280;3454;42.654;23.378;2023-04-21T03:38:49;63973.41;;;9.84;96.90
6833;BME280;3454;42.654;23.378;2023-04-21T03:41:14;63963.34;;;9.72;97.26
6833;BME280;3454;42.654;23.378;2023-04-21T03:43:40;63948.03;;;9.58;98.25
6833;BME280;3454;42.654;23.378;2023-04-21T03:46:05;63939.28;;;9.50;98.66
6833;BME280;3454;42.654;23.378;2023-04-21T03:48:30;63938.97;;;9.52;98.29
6833;BME280;3454;42.654;23.378;2023-04-21T03:50:56;63938.41;;;9.52;97.66
6833;BME280;3454;42.654;23.378;2023-04-21T03:53:22;63941.81;;;9.50;99.13
6833;BME280;3454;42.654;23.378;2023-04-21T03:55:50;63934.69;;;9.44;99.68
6833;BME280;3454;42.654;23.378;2023-04-21T03:58:15;63943.66;;;9.54;100.00
6833;BME280;3454;42.654;23.378;2023-04-21T04:00:41;63955.03;;;9.69;98.68
6833;BME280;3454;42.654;23.378;2023-04-21T04:03:07;63937.88;;;9.51;99.38
6833;BME280;3454;42.654;23.378;2023-04-21T04:05:34;63943.09;;;9.54;99.62
6833;BME280;3454;42.654;23.378;2023-04-21T04:07:59;63948.03;;;9.58;97.96
6833;BME280;3454;42.654;23.378;2023-04-21T04:10:25;63948.47;;;9.63;98.25
6833;BME280;3454;42.654;23.378;2023-04-21T04:12:50;63967.72;;;9.76;96.82
6833;BME280;3454;42.654;23.378;2023-04-21T04:15:16;63956.78;;;9.66;97.18
6833;BME280;3454;42.654;23.378;2023-04-21T04:17:41;63948.25;;;9.61;97.55
6833;BME280;3454;42.654;23.378;2023-04-21T04:20:07;63960.84;;;9.72;97.12
6833;BME280;3454;42.654;23.378;2023-04-21T04:22:33;63983.81;;;9.93;96.27
6833;BME280;3454;42.654;23.378;2023-04-21T04:24:59;63965.75;;;9.77;93.84
6833;BME280;3454;42.654;23.378;2023-04-21T04:27:26;63981.94;;;9.89;98.07
6833;BME280;3454;42.654;23.378;2023-04-21T04:29:51;63995.84;;;10.04;94.95
6833;BME280;3454;42.654;23.378;2023-04-21T04:32:17;64022.09;;;10.29;91.46
6833;BME280;3454;42.654;23.378;2023-04-21T04:34:44;64030.09;;;10.34;89.92
6833;BME280;3454;42.654;23.378;2023-04-21T04:37:09;64046.50;;;10.49;88.96
6833;BME280;3454;42.654;23.378;2023-04-21T04:39:35;64079.25;;;10.83;88.44
6833;BME280;3454;42.654;23.378;2023-04-21T04:42:01;64069.19;;;10.72;85.73
6833;BME280;3454;42.654;23.378;2023-04-21T04:44:28;64104.53;;;11.02;87.12
6833;BME280;3454;42.654;23.378;2023-04-21T04:46:54;64074.13;;;10.76;86.38
6833;BME280;3454;42.654;23.378;2023-04-21T04:49:20;64103.66;;;11.04;88.17
6833;BME280;3454;42.654;23.378;2023-04-21T04:51:46;64118.44;;;11.17;88.90
6833;BME280;3454;42.654;23.378;2023-04-21T04:54:11;64117.03;;;11.18;89.85
6833;BME280;3454;42.654;23.378;2023-04-21T04:56:37;64110.78;;;11.10;90.86
6833;BME280;3454;42.654;23.378;2023-04-21T04:59:02;64110.00;;;11.07;90.01
6833;BME280;3454;42.654;23.378;2023-04-21T05:01:27;64075.19;;;10.77;92.48
6833;BME280;3454;42.654;23.378;2023-04-21T05:03:55;64079.34;;;10.79;91.89
6833;BME280;3454;42.654;23.378;2023-04-21T05:06:22;64108.59;;;11.08;92.59
6833;BME280;3454;42.654;23.378;2023-04-21T05:08:47;64084.28;;;10.83;92.21
6833;BME280;3454;42.654;23.378;2023-04-21T05:11:13;64079.91;;;10.79;93.18
6833;BME280;3454;42.654;23.378;2023-04-21T05:13:38;64103.66;;;11.04;92.13
6833;BME280;3454;42.654;23.378;2023-04-21T05:16:04;64108.94;;;11.06;89.67
6833;BME280;3454;42.654;23.378;2023-04-21T05:18:30;64128.88;;;11.27;88.14
6833;BME280;3454;42.654;23.378;2023-04-21T05:20:55;64141.22;;;11.36;87.33
6833;BME280;3454;42.654;23.378;2023-04-21T05:23:20;64149.09;;;11.45;86.73
6833;BME280;3454;42.654;23.378;2023-04-21T05:25:46;64169.19;;;11.61;85.93
6833;BME280;3454;42.654;23.378;2023-04-21T05:28:11;64186.94;;;11.80;84.25
6833;BME280;3454;42.654;23.378;2023-04-21T05:30:37;64190.47;;;11.86;84.03
6833;BME280;3454;42.654;23.378;2023-04-21T05:33:02;64202.28;;;11.94;84.33
6833;BME280;3454;42.654;23.378;2023-04-21T05:35:32;64194.06;;;11.87;85.52
6833;BME280;3454;42.654;23.378;2023-04-21T05:37:57;64214.00;;;12.07;84.23
6833;BME280;3454;42.654;23.378;2023-04-21T05:40:23;64202.09;;;11.92;85.93
6833;BME280;3454;42.654;23.378;2023-04-21T05:42:48;64225.31;;;12.15;83.61
6833;BME280;3454;42.654;23.378;2023-04-21T05:45:14;64239.03;;;12.28;83.30
6833;BME280;3454;42.654;23.378;2023-04-21T05:47:39;64239.03;;;12.28;83.59
6833;BME280;3454;42.654;23.378;2023-04-21T05:50:06;64269.16;;;12.55;81.38
6833;BME280;3454;42.654;23.378;2023-04-21T05:52:31;64276.84;;;12.62;79.73
6833;BME280;3454;42.654;23.378;2023-04-21T05:54:57;64252.19;;;12.40;78.23
6833;BME280;3454;42.654;23.378;2023-04-21T05:57:26;64273.22;;;12.61;78.46
6833;BME280;3454;42.654;23.378;2023-04-21T05:59:52;64220.38;;;12.11;77.96
6833;BME280;3454;42.654;23.378;2023-04-21T06:02:17;64202.63;;;11.92;78.06
6833;BME280;3454;42.654;23.378;2023-04-21T06:04:43;64202.84;;;11.95;78.68
6833;BME280;3454;42.654;23.378;2023-04-21T06:07:09;64230.03;;;12.17;78.28
6833;BME280;3454;42.654;23.378;2023-04-21T06:09:38;64241.97;;;12.33;77.43
6833;BME280;3454;42.654;23.378;2023-04-21T06:12:03;64258.75;;;12.46;79.44
6833;BME280;3454;42.654;23.378;2023-04-21T06:14:29;64230.25;;;12.20;77.52
6833;BME280;3454;42.654;23.378;2023-04-21T06:16:55;64211.06;;;12.02;78.27
6833;BME280;3454;42.654;23.378;2023-04-21T06:19:20;64251.41;;;12.37;78.35
6833;BME280;3454;42.654;23.378;2023-04-21T06:21:45;64235.94;;;12.27;78.13
6833;BME280;3454;42.654;23.378;2023-04-21T06:24:11;64238.81;;;12.25;78.09
6833;BME280;3454;42.654;23.378;2023-04-21T06:26:36;64236.28;;;12.25;77.76
6833;BME280;3454;42.654;23.378;2023-04-21T06:29:02;64221.25;;;12.09;77.91
6833;BME280;3454;42.654;23.378;2023-04-21T06:31:27;64224.00;;;12.12;78.00
6833;BME280;3454;42.654;23.378;2023-04-21T06:33:52;64223.66;;;12.14;78.19
6833;BME280;3454;42.654;23.378;2023-04-21T06:36:18;64242.84;;;12.31;78.07
6833;BME280;3454;42.654;23.378;2023-04-21T06:38:45;64259.50;;;12.49;77.65
6833;BME280;3454;42.654;23.378;2023-04-21T06:41:11;64247.78;;;12.36;77.18
6833;BME280;3454;42.654;23.378;2023-04-21T06:43:36;64234.09;;;12.23;77.80
6833;BME280;3454;42.654;23.378;2023-04-21T06:46:02;64209.41;;;12.01;79.33
6833;BME280;3454;42.654;23.378;2023-04-21T06:48:27;64233.53;;;12.23;78.64
6833;BME280;3454;42.654;23.378;2023-04-21T06:50:54;64255.47;;;12.43;78.00
6833;BME280;3454;42.654;23.378;2023-04-21T06:53:19;64272.44;;;12.58;77.61
6833;BME280;3454;42.654;23.378;2023-04-21T06:55:46;64290.78;;;12.78;77.03
6833;BME280;3454;42.654;23.378;2023-04-21T06:58:12;64307.56;;;12.91;75.80
6833;BME280;3454;42.654;23.378;2023-04-21T07:00:37;64299.88;;;12.84;75.54
6833;BME280;3454;42.654;23.378;2023-04-21T07:03:03;64282.56;;;12.70;75.88
6833;BME280;3454;42.654;23.378;2023-04-21T07:05:28;64289.13;;;12.76;75.63
6833;BME280;3454;42.654;23.378;2023-04-21T07:07:54;64283.09;;;12.71;75.95
6833;BME280;3454;42.654;23.378;2023-04-21T07:10:24;64270.25;;;12.56;76.54
6833;BME280;3454;42.654;23.378;2023-04-21T07:12:50;64249.97;;;12.38;76.95
6833;BME280;3454;42.654;23.378;2023-04-21T07:15:15;64261.16;;;12.50;77.02
6833;BME280;3454;42.654;23.378;2023-04-21T07:17:41;64288.56;;;12.76;75.61
6833;BME280;3454;42.654;23.378;2023-04-21T07:20:07;64322.41;;;13.04;74.56
6833;BME280;3454;42.654;23.378;2023-04-21T07:22:32;64324.59;;;13.06;74.23
6833;BME280;3454;42.654;23.378;2023-04-21T07:25:01;64339.63;;;13.22;74.05
6833;BME280;3454;42.654;23.378;2023-04-21T07:27:26;64357.19;;;13.38;73.03
6833;BME280;3454;42.654;23.378;2023-04-21T07:29:51;64360.81;;;13.39;73.45
6833;BME280;3454;42.654;23.378;2023-04-21T07:32:17;64352.00;;;13.31;72.26
6833;BME280;3454;42.654;23.378;2023-04-21T07:34:43;64369.91;;;13.45;73.19
6833;BME280;3454;42.654;23.378;2023-04-21T07:37:11;64377.81;;;13.55;72.07
6833;BME280;3454;42.654;23.378;2023-04-21T07:39:36;64414.06;;;13.88;71.89
6833;BME280;3454;42.654;23.378;2023-04-21T07:42:02;64399.22;;;13.75;71.01
6833;BME280;3454;42.654;23.378;2023-04-21T07:44:28;64445.34;;;14.17;70.27
6833;BME280;3454;42.654;23.378;2023-04-21T07:46:54;64484.94;;;14.53;68.76
6833;BME280;3454;42.654;23.378;2023-04-21T07:49:19;64471.00;;;14.38;67.42
6833;BME280;3454;42.654;23.378;2023-04-21T07:51:45;64459.66;;;14.30;67.69
6833;BME280;3454;42.654;23.378;2023-04-21T07:54:10;64462.22;;;14.30;68.25
6833;BME280;3454;42.654;23.378;2023-04-21T07:56:36;64472.84;;;14.42;67.94
6833;BME280;3454;42.654;23.378;2023-04-21T07:59:01;64507.13;;;14.76;67.37
6833;BME280;3454;42.654;23.378;2023-04-21T08:01:27;64455.78;;;14.26;67.37
6833;BME280;3454;42.654;23.378;2023-04-21T08:03:52;64434.38;;;14.07;68.31
6833;BME280;3454;42.654;23.378;2023-04-21T08:06:18;64463.50;;;14.34;67.97
6833;BME280;3454;42.654;23.378;2023-04-21T08:08:43;64483.28;;;14.52;67.07
6833;BME280;3454;42.654;23.378;2023-04-21T08:11:08;64483.84;;;14.52;66.00
6833;BME280;3454;42.654;23.378;2023-04-21T08:13:34;64494.50;;;14.64;64.95
6833;BME280;3454;42.654;23.378;2023-04-21T08:16:00;64487.13;;;14.55;65.27
6833;BME280;3454;42.654;23.378;2023-04-21T08:18:25;64465.16;;;14.35;65.77
6833;BME280;3454;42.654;23.378;2023-04-21T08:20:50;64462.63;;;14.35;65.35
6833;BME280;3454;42.654;23.378;2023-04-21T08:23:17;64470.84;;;14.43;66.31
6833;BME280;3454;42.654;23.378;2023-04-21T08:25:42;64500.31;;;14.67;65.60
6833;BME280;3454;42.654;23.378;2023-04-21T08:28:08;64521.41;;;14.89;65.19
6833;BME280;3454;42.654;23.378;2023-04-21T08:30:33;64540.66;;;15.06;64.23
6833;BME280;3454;42.654;23.378;2023-04-21T08:32:58;64533.50;;;15.00;63.61
6833;BME280;3454;42.654;23.378;2023-04-21T08:35:24;64525.81;;;14.93;63.22
6833;BME280;3454;42.654;23.378;2023-04-21T08:37:50;64553.28;;;15.18;63.38
6833;BME280;3454;42.654;23.378;2023-04-21T08:40:15;64624.25;;;15.83;62.68
6833;BME280;3454;42.654;23.378;2023-04-21T08:42:41;64601.16;;;15.62;61.09
6833;BME280;3454;42.654;23.378;2023-04-21T08:45:07;64560.22;;;15.22;61.45
6833;BME280;3454;42.654;23.378;2023-04-21T08:47:33;64571.44;;;15.35;60.55
6833;BME280;3454;42.654;23.378;2023-04-21T08:49:59;64591.81;;;15.53;60.45
6833;BME280;3454;42.654;23.378;2023-04-21T08:52:24;64592.91;;;15.54;61.53
6833;BME280;3454;42.654;23.378;2023-04-21T08:54:50;64638.56;;;15.96;61.51
6833;BME280;3454;42.654;23.378;2023-04-21T08:57:20;64665.72;;;16.23;58.42
6833;BME280;3454;42.654;23.378;2023-04-21T08:59:45;64615.81;;;15.73;59.75
6833;BME280;3454;42.654;23.378;2023-04-21T09:02:13;64620.00;;;15.74;59.49
6833;BME280;3454;42.654;23.378;2023-04-21T09:04:44;64611.63;;;15.71;59.31
6833;BME280;3454;42.654;23.378;2023-04-21T09:07:10;64636.34;;;15.94;59.05
6833;BME280;3454;42.654;23.378;2023-04-21T09:09:51;64676.88;;;16.29;57.43
6833;BME280;3454;42.654;23.378;2023-04-21T09:12:17;64668.28;;;16.23;57.08
6833;BME280;3454;42.654;23.378;2023-04-21T09:14:42;64668.84;;;16.24;56.47
6833;BME280;3454;42.654;23.378;2023-04-21T09:17:08;64707.72;;;16.57;57.32
6833;BME280;3454;42.654;23.378;2023-04-21T09:19:33;64765.19;;;17.12;56.37
6833;BME280;3454;42.654;23.378;2023-04-21T09:22:00;64731.25;;;16.83;54.93
6833;BME280;3454;42.654;23.378;2023-04-21T09:24:26;64667.72;;;16.23;54.54
6833;BME280;3454;42.654;23.378;2023-04-21T09:26:52;64637.81;;;15.93;56.90
6833;BME280;3454;42.654;23.378;2023-04-21T09:29:22;64648.81;;;16.03;55.70
6833;BME280;3454;42.654;23.378;2023-04-21T09:31:49;64656.16;;;16.12;57.01
6833;BME280;3454;42.654;23.378;2023-04-21T09:34:24;64640.75;;;15.98;58.37
6833;BME280;3454;42.654;23.378;2023-04-21T09:37:01;64646.81;;;16.04;57.33
6833;BME280;3454;42.654;23.378;2023-04-21T09:39:31;64673.78;;;16.28;57.09
6833;BME280;3454;42.654;23.378;2023-04-21T09:41:57;64646.25;;;16.03;56.22
6833;BME280;3454;42.654;23.378;2023-04-21T09:44:27;64679.50;;;16.36;55.47
6833;BME280;3454;42.654;23.378;2023-04-21T09:47:02;64710.69;;;16.62;54.85
6833;BME280;3454;42.654;23.378;2023-04-21T09:49:30;64737.84;;;16.89;53.13
6833;BME280;3454;42.654;23.378;2023-04-21T09:51:59;64735.81;;;16.83;53.87
6833;BME280;3454;42.654;23.378;2023-04-21T09:54:29;64712.53;;;16.66;53.24
6833;BME280;3454;42.654;23.378;2023-04-21T09:56:58;64759.69;;;17.07;51.27
6833;BME280;3454;42.654;23.378;2023-04-21T09:59:25;64803.75;;;17.47;50.54
6833;BME280;3454;42.654;23.378;2023-04-21T10:01:54;64743.38;;;16.94;51.03
6833;BME280;3454;42.654;23.378;2023-04-21T10:04:21;64734.91;;;16.84;51.04
6833;BME280;3454;42.654;23.378;2023-04-21T10:06:47;64730.50;;;16.80;51.54
6833;BME280;3454;42.654;23.378;2023-04-21T10:09:15;64695.59;;;16.46;51.82
6833;BME280;3454;42.654;23.378;2023-04-21T10:11:42;64694.69;;;16.47;52.10
6833;BME280;3454;42.654;23.378;2023-04-21T10:14:08;64714.31;;;16.63;51.89
6833;BME280;3454;42.654;23.378;2023-04-21T10:16:37;64724.03;;;16.69;51.30
6833;BME280;3454;42.654;23.378;2023-04-21T10:19:22;64741.31;;;16.88;51.77
6833;BME280;3454;42.654;23.378;2023-04-21T10:21:48;64782.59;;;17.25;52.77
6833;BME280;3454;42.654;23.378;2023-04-21T10:24:14;64816.44;;;17.58;52.03
6833;BME280;3454;42.654;23.378;2023-04-21T10:26:40;64776.00;;;17.19;52.92
6833;BME280;3454;42.654;23.378;2023-04-21T10:29:07;64775.66;;;17.21;54.76
6833;BME280;3454;42.654;23.378;2023-04-21T10:34:20;64816.78;;;17.56;53.07
6833;BME280;3454;42.654;23.378;2023-04-21T10:41:57;64850.06;;;17.89;50.62
6833;BME280;3454;42.654;23.378;2023-04-21T10:47:49;64769.59;;;17.16;54.06
6833;BME280;3454;42.654;23.378;2023-04-21T10:50:22;64817.53;;;17.59;53.86
6833;BME280;3454;42.654;23.378;2023-04-21T10:53:08;64895.28;;;18.30;51.78
6833;BME280;3454;42.654;23.378;2023-04-21T10:55:34;64829.88;;;17.73;51.10
6833;BME280;3454;42.654;23.378;2023-04-21T10:58:05;64738.19;;;16.87;51.87
6833;BME280;3454;42.654;23.378;2023-04-21T11:00:31;64659.81;;;16.13;53.32
6833;BME280;3454;42.654;23.378;2023-04-21T11:03:02;64641.88;;;15.99;53.41
6833;BME280;3454;42.654;23.378;2023-04-21T11:05:36;64613.25;;;15.73;53.71
6833;BME280;3454;42.654;23.378;2023-04-21T11:08:07;64611.63;;;15.71;53.81
6833;BME280;3454;42.654;23.378;2023-04-21T11:10:43;64609.94;;;15.70;53.44
6833;BME280;3454;42.654;23.378;2023-04-21T11:13:09;64649.91;;;16.04;53.04
6833;BME280;3454;42.654;23.378;2023-04-21T11:15:35;64739.88;;;16.89;50.16
6833;BME280;3454;42.654;23.378;2023-04-21T11:18:01;64815.91;;;17.58;50.33
6833;BME280;3454;42.654;23.378;2023-04-21T11:20:27;64823.06;;;17.65;49.28
6833;BME280;3454;42.654;23.378;2023-04-21T11:22:55;64780.97;;;17.24;52.49
6833;BME280;3454;42.654;23.378;2023-04-21T11:25:21;64769.03;;;17.15;54.38
6833;BME280;3454;42.654;23.378;2023-04-21T11:27:53;64778.06;;;17.26;54.44
6833;BME280;3454;42.654;23.378;2023-04-21T11:30:20;64783.38;;;17.28;55.20
6833;BME280;3454;42.654;23.378;2023-04-21T11:32:52;64852.28;;;17.91;54.47
6833;BME280;3454;42.654;23.378;2023-04-21T11:35:18;64884.25;;;18.20;54.90
6833;BME280;3454;42.654;23.378;2023-04-21T11:37:43;64918.13;;;18.54;52.29
6833;BME280;3454;42.654;23.378;2023-04-21T11:40:09;64959.81;;;18.89;53.51
6833;BME280;3454;42.654;23.378;2023-04-21T11:42:35;64891.97;;;18.27;51.79
6833;BME280;3454;42.654;23.378;2023-04-21T11:45:01;64875.97;;;18.13;50.41
6833;BME280;3454;42.654;23.378;2023-04-21T11:47:27;64744.81;;;16.93;55.13
6833;BME280;3454;42.654;23.378;2023-04-21T11:52:22;64752.31;;;16.98;58.22
6833;BME280;3454;42.654;23.378;2023-04-21T11:55:00;64753.97;;;16.99;57.09
6833;BME280;3454;42.654;23.378;2023-04-21T11:57:27;64744.28;;;16.93;54.63
6833;BME280;3454;42.654;23.378;2023-04-21T11:59:53;64728.84;;;16.78;54.14
6833;BME280;3454;42.654;23.378;2023-04-21T12:02:28;64728.09;;;16.75;55.41
6833;BME280;3454;42.654;23.378;2023-04-21T12:05:11;64761.47;;;17.04;54.66
6833;BME280;3454;42.654;23.378;2023-04-21T12:07:45;64738.97;;;16.90;56.31
6833;BME280;3454;42.654;23.378;2023-04-21T12:10:14;64759.88;;;17.09;53.53
6833;BME280;3454;42.654;23.378;2023-04-21T12:12:41;64768.50;;;17.15;51.73
6833;BME280;3454;42.654;23.378;2023-04-21T12:15:11;64750.88;;;16.99;52.14
6833;BME280;3454;42.654;23.378;2023-04-21T12:20:18;64761.91;;;17.09;50.91
6833;BME280;3454;42.654;23.378;2023-04-21T12:22:44;64733.78;;;16.83;49.94
6833;BME280;3454;42.654;23.378;2023-04-21T12:25:10;64793.97;;;17.33;48.75
6833;BME280;3454;42.654;23.378;2023-04-21T12:27:35;64951.00;;;18.81;45.12
6833;BME280;3454;42.654;23.378;2023-04-21T12:30:02;65020.00;;;19.44;44.75
6833;BME280;3454;42.654;23.378;2023-04-21T12:32:28;65091.22;;;20.09;42.31
6833;BME280;3454;42.654;23.378;2023-04-21T12:34:53;65102.31;;;20.19;42.73
6833;BME280;3454;42.654;23.378;2023-04-21T12:37:19;65134.91;;;20.49;41.62
6833;BME280;3454;42.654;23.378;2023-04-21T12:39:45;65086.81;;;20.05;42.65
6833;BME280;3454;42.654;23.378;2023-04-21T12:42:10;64984.66;;;19.12;44.15
6833;BME280;3454;42.654;23.378;2023-04-21T12:44:36;64970.84;;;18.99;44.33
6833;BME280;3454;42.654;23.378;2023-04-21T12:47:02;64910.03;;;18.49;45.44
6833;BME280;3454;42.654;23.378;2023-04-21T12:49:27;64898.25;;;18.35;47.27
6833;BME280;3454;42.654;23.378;2023-04-21T12:51:52;64908.72;;;18.45;46.65
6833;BME280;3454;42.654;23.378;2023-04-21T12:54:18;64908.50;;;18.42;46.08
6833;BME280;3454;42.654;23.378;2023-04-21T12:56:43;64887.56;;;18.23;47.45
6833;BME280;3454;42.654;23.378;2023-04-21T12:59:10;64863.84;;;18.02;48.59
6833;BME280;3454;42.654;23.378;2023-04-21T13:01:36;64893.41;;;18.26;47.33
6833;BME280;3454;42.654;23.378;2023-04-21T13:04:02;64873.91;;;18.06;48.17
6833;BME280;3454;42.654;23.378;2023-04-21T13:06:29;64960.94;;;18.90;47.54
6833;BME280;3454;42.654;23.378;2023-04-21T13:08:55;65084.41;;;20.00;45.24
6833;BME280;3454;42.654;23.378;2023-04-21T13:11:21;65108.38;;;20.25;43.58
6833;BME280;3454;42.654;23.378;2023-04-21T13:13:46;65054.25;;;19.75;43.24
6833;BME280;3454;42.654;23.378;2023-04-21T13:16:12;65082.97;;;20.01;45.43
6833;BME280;3454;42.654;23.378;2023-04-21T13:18:37;64975.84;;;19.04;41.65
6833;BME280;3454;42.654;23.378;2023-04-21T13:21:04;64851.16;;;17.90;44.00
6833;BME280;3454;42.654;23.378;2023-04-21T13:23:29;64906.84;;;18.41;44.37
6833;BME280;3454;42.654;23.378;2023-04-21T13:25:55;64949.34;;;18.80;43.36